Weather reports worldwide

Advertisment
Lus-La-Croix-Haute, France (7587): temperature & dewpoint: 10.08.2018 13:00:00 - 16.08.2018 13:00:00 (CEST)Lus-La-Croix-Haute, France (7587): wind speed & gusts: 10.08.2018 13:00:00 - 16.08.2018 13:00:00 (CEST)Lus-La-Croix-Haute, France (7587): wind direction: 10.08.2018 13:00:00 - 16.08.2018 13:00:00 (CEST)Lus-La-Croix-Haute, France (7587): precipitation: 10.08.2018 13:00:00 - 16.08.2018 13:00:00 (CEST)
Date & Time tt [°C] td [°C] ff [km/h] ff [kn] fx [km/h] fx [kn] dd rr [mm]
16.08.2018 13:00:00 24,5 12,1 13 7 28 15 S 0,0
16.08.2018 12:00:00 23,7 12,4 15 8 28 15 S 0,0
16.08.2018 11:00:00 22,1 12,4 9 5 24 13 S 0,0
16.08.2018 10:00:00 16,6 14,1 2 1 8 4 SW 0,0
16.08.2018 09:00:00 13,4 13,2 2 1 5 3 SSE 0,0
16.08.2018 08:00:00 10,8 10,6 2 1 4 2 SSE -
16.08.2018 07:00:00 10,6 10,3 2 1 4 2 NE 0,0
16.08.2018 06:00:00 11,0 10,7 2 1 4 2 SE 0,0
16.08.2018 05:00:00 11,4 10,9 2 1 5 3 N 0,0
16.08.2018 04:00:00 12,0 11,5 0 0 5 3 N 0,0
16.08.2018 03:00:00 12,2 11,4 4 2 8 4 ESE 0,0
16.08.2018 02:00:00 13,0 11,9 2 1 8 4 NW -
16.08.2018 01:00:00 13,8 12,2 4 2 5 3 ENE 0,0
16.08.2018 00:00:00 14,6 12,5 4 2 8 4 NE 0,0
15.08.2018 23:00:00 15,1 12,8 2 1 9 5 SE 0,0
15.08.2018 22:00:00 16,0 12,7 8 4 16 9 N 0,0
15.08.2018 21:00:00 17,5 13,0 8 4 24 13 NNW 0,0
15.08.2018 20:00:00 19,3 13,2 11 6 34 18 NW -
15.08.2018 19:00:00 21,7 13,1 16 9 37 20 NNW 0,0
15.08.2018 18:00:00 22,5 13,0 16 9 44 24 NNW 0,0
15.08.2018 17:00:00 23,3 12,0 16 9 34 18 NNW 0,0
15.08.2018 16:00:00 23,0 12,3 21 11 41 22 NNW 0,0
15.08.2018 15:00:00 22,4 13,2 16 9 42 23 NW 0,0
15.08.2018 14:00:00 21,7 13,3 16 9 34 18 NW -
15.08.2018 13:00:00 20,7 11,9 13 7 34 18 NNW 0,0
15.08.2018 12:00:00 19,4 12,9 15 8 34 18 NNW 0,0
15.08.2018 11:00:00 18,2 12,6 11 6 28 15 NW 0,0
15.08.2018 10:00:00 16,8 11,9 9 5 29 16 NNW 0,0
15.08.2018 09:00:00 15,1 11,1 11 6 26 14 NNW 0,0
15.08.2018 08:00:00 14,4 11,2 9 5 28 15 NW -
15.08.2018 07:00:00 13,8 10,6 8 4 24 13 N 0,0
15.08.2018 06:00:00 13,9 10,9 4 2 26 14 N 0,0
15.08.2018 05:00:00 13,8 11,0 9 5 24 13 NNW 0,0
15.08.2018 04:00:00 14,3 10,9 11 6 22 12 NW 0,0
15.08.2018 03:00:00 14,8 10,8 4 2 22 12 N 0,0
15.08.2018 02:00:00 14,6 10,8 9 5 26 14 N -
15.08.2018 01:00:00 15,2 10,8 8 4 31 17 N 0,0
15.08.2018 00:00:00 15,6 11,4 5 3 16 9 N 0,0
14.08.2018 23:00:00 16,0 11,6 4 2 28 15 E 0,0
14.08.2018 22:00:00 16,2 11,1 11 6 44 24 NNW 0,0
14.08.2018 21:00:00 16,4 11,1 11 6 44 24 N 0,0
14.08.2018 20:00:00 16,6 11,5 16 9 50 27 NW -
14.08.2018 19:00:00 17,6 11,4 11 6 46 25 N 0,0
14.08.2018 18:00:00 17,8 10,4 15 8 52 28 NNW 0,0
14.08.2018 17:00:00 20,0 12,2 22 12 57 31 NNW 0,0
14.08.2018 16:00:00 19,6 12,6 18 10 57 31 N 0,0
14.08.2018 15:00:00 18,2 12,0 22 12 55 30 NNW 0,0
14.08.2018 14:00:00 18,0 12,4 18 10 41 22 NW -
14.08.2018 13:00:00 18,3 13,2 16 9 48 26 NNW 0,0
14.08.2018 12:00:00 16,3 11,7 24 13 50 27 NNW 0,0
14.08.2018 11:00:00 16,2 12,4 18 10 41 22 NNW 0,2
14.08.2018 10:00:00 13,9 12,8 11 6 41 22 NNW 0,2
14.08.2018 09:00:00 13,9 12,9 15 8 37 20 NW 0,0
14.08.2018 08:00:00 13,5 12,9 5 3 21 11 N -
14.08.2018 07:00:00 13,3 13,1 4 2 22 12 NW 0,0
14.08.2018 06:00:00 13,3 13,1 4 2 28 15 NNW 0,0
14.08.2018 05:00:00 13,1 12,9 15 8 28 15 NW 0,0
14.08.2018 04:00:00 11,4 11,2 4 2 8 4 ESE 0,0
14.08.2018 03:00:00 11,9 11,7 4 2 9 5 E 0,0
14.08.2018 02:00:00 12,3 12,1 2 1 9 5 NNE -
14.08.2018 01:00:00 12,7 12,4 2 1 8 4 S 0,0
14.08.2018 00:00:00 13,6 13,4 4 2 5 3 W 0,2
13.08.2018 23:00:00 13,8 13,6 4 2 8 4 NE 0,4
13.08.2018 22:00:00 13,7 13,4 4 2 8 4 S 0,0
13.08.2018 21:00:00 14,0 13,5 2 1 9 5 SE 0,0
13.08.2018 20:00:00 14,5 14,0 4 2 24 13 NNW -
13.08.2018 19:00:00 14,0 13,4 8 4 83 45 NW 15,0
13.08.2018 18:00:00 20,3 15,5 5 3 26 14 S 0,4
13.08.2018 17:00:00 22,2 14,1 15 8 29 16 S 0,0
13.08.2018 16:00:00 22,8 13,8 9 5 21 11 SSW 0,0
13.08.2018 15:00:00 22,9 13,9 9 5 22 12 S 0,0
13.08.2018 14:00:00 21,5 14,6 9 5 22 12 SSW -
13.08.2018 13:00:00 19,4 14,9 8 4 15 8 S 0,0
13.08.2018 12:00:00 18,1 15,4 4 2 11 6 S 0,0
13.08.2018 11:00:00 15,3 14,2 8 4 15 8 ENE 0,0
13.08.2018 10:00:00 14,8 14,3 2 1 13 7 NNE 0,8
13.08.2018 09:00:00 14,6 14,3 5 3 15 8 SSE 2,0
13.08.2018 08:00:00 14,5 14,0 4 2 13 7 E -
13.08.2018 07:00:00 14,6 13,8 5 3 39 21 N 12,0
13.08.2018 06:00:00 15,7 13,9 13 7 29 16 NNW 0,0
13.08.2018 05:00:00 15,8 12,9 8 4 31 17 N 0,0
13.08.2018 04:00:00 17,1 13,0 11 6 22 12 NE 0,0
13.08.2018 03:00:00 16,0 12,9 4 2 9 5 E 0,0
13.08.2018 02:00:00 16,2 12,7 4 2 13 7 NE -
13.08.2018 01:00:00 15,5 12,3 4 2 13 7 SW 0,0
13.08.2018 00:00:00 15,9 12,3 2 1 8 4 ENE 0,0
12.08.2018 23:00:00 16,4 12,2 2 1 5 3 WNW 0,0
12.08.2018 22:00:00 18,0 12,0 2 1 9 5 NW 0,0
12.08.2018 21:00:00 20,0 11,7 4 2 13 7 SSE 0,0
12.08.2018 20:00:00 23,2 10,9 8 4 24 13 S -
12.08.2018 19:00:00 25,3 10,7 16 9 26 14 S 0,0
12.08.2018 18:00:00 26,3 10,4 15 8 34 18 S 0,0
12.08.2018 17:00:00 27,5 11,5 8 4 29 16 WSW 0,0
12.08.2018 16:00:00 26,8 10,1 13 7 34 18 S 0,0
12.08.2018 15:00:00 26,2 10,4 9 5 34 18 S 0,0
12.08.2018 14:00:00 25,7 6,8 13 7 34 18 SE -
12.08.2018 13:00:00 24,8 7,9 16 9 35 19 S 0,0
12.08.2018 12:00:00 23,8 4,7 18 10 29 16 SSW 0,0
12.08.2018 11:00:00 21,6 10,4 8 4 26 14 S 0,0
12.08.2018 10:00:00 16,0 12,5 4 2 8 4 WNW 0,0
12.08.2018 09:00:00 11,5 11,0 2 1 5 3 NNW 0,0
12.08.2018 08:00:00 8,6 8,5 4 2 5 3 N -
12.08.2018 07:00:00 8,5 8,2 2 1 4 2 NNW 0,0
12.08.2018 06:00:00 8,5 7,9 2 1 5 3 NW 0,0
12.08.2018 05:00:00 9,0 8,4 2 1 4 2 NNE 0,0
12.08.2018 04:00:00 9,7 8,8 2 1 4 2 SE 0,0
12.08.2018 03:00:00 10,3 9,1 2 1 5 3 NNW 0,0
12.08.2018 02:00:00 10,8 8,9 4 2 5 3 N -
12.08.2018 01:00:00 11,7 9,3 2 1 8 4 NNE 0,0
12.08.2018 00:00:00 12,7 9,5 4 2 11 6 ENE 0,0
11.08.2018 23:00:00 14,0 9,6 5 3 15 8 NNE 0,0
11.08.2018 22:00:00 14,8 9,6 4 2 21 11 N 0,0
11.08.2018 21:00:00 16,5 9,7 13 7 29 16 NW 0,0
11.08.2018 20:00:00 19,4 10,1 13 7 31 17 NW -
11.08.2018 19:00:00 21,8 10,9 16 9 34 18 NW 0,0
11.08.2018 18:00:00 22,8 11,2 16 9 37 20 NNW 0,0
11.08.2018 17:00:00 23,9 10,2 16 9 34 18 NNW 0,0
11.08.2018 16:00:00 22,6 9,7 18 10 44 24 WNW 0,0
11.08.2018 15:00:00 22,3 10,1 18 10 42 23 NW 0,0
11.08.2018 14:00:00 21,3 8,2 26 14 44 24 WNW -
11.08.2018 13:00:00 21,4 8,0 18 10 35 19 NNW 0,0
11.08.2018 12:00:00 20,3 8,3 11 6 35 19 NW 0,0
11.08.2018 11:00:00 18,6 10,2 13 7 34 18 NNW 0,0
11.08.2018 10:00:00 17,2 9,1 13 7 28 15 NNW 0,0
11.08.2018 09:00:00 15,6 9,5 9 5 22 12 N 0,0
11.08.2018 08:00:00 12,7 9,1 9 5 29 16 N -
11.08.2018 07:00:00 12,3 9,1 8 4 21 11 N 0,0
11.08.2018 06:00:00 12,0 9,2 9 5 18 10 N 0,0
11.08.2018 05:00:00 11,3 9,4 8 4 13 7 NNE 0,0
11.08.2018 04:00:00 11,1 9,2 5 3 11 6 NNE 0,2
11.08.2018 03:00:00 10,9 9,0 4 2 8 4 NE 0,0
11.08.2018 02:00:00 11,8 9,7 4 2 9 5 ENE -
11.08.2018 01:00:00 12,0 9,9 5 3 9 5 ENE 0,0
11.08.2018 00:00:00 12,9 9,9 4 2 13 7 ENE 0,0
10.08.2018 23:00:00 13,5 10,7 2 1 15 8 E 0,0
10.08.2018 22:00:00 14,5 10,9 8 4 18 10 N 0,0
10.08.2018 21:00:00 16,1 11,0 8 4 29 16 NW 0,0
10.08.2018 20:00:00 18,9 11,9 16 9 29 16 NW -
10.08.2018 19:00:00 21,7 13,1 16 9 31 17 NW 0,0
10.08.2018 18:00:00 23,2 11,9 18 10 29 16 WNW 0,0
10.08.2018 17:00:00 24,5 10,0 11 6 29 16 WNW 0,0
10.08.2018 16:00:00 24,5 8,0 4 2 26 14 S 0,0
10.08.2018 15:00:00 23,3 7,0 8 4 22 12 W 0,0
10.08.2018 14:00:00 22,3 13,9 11 6 26 14 WNW -
10.08.2018 13:00:00 20,0 12,5 15 8 29 16 WNW 0,0

tt = temperature
td = dewpoint
ff = wind speed
fx = gusts
dd = wind direction
rr = precipitation

Next stations